Historique des mesures à Cassis (13260), France
Quotidien Résumé Janvier 19, 2017 Unités:  Métrique    US   Métrique/US
« Précédent (Jour)
Suivant (Jour) »
Quotidien Hebdomadaire Mensuel Annuel Période au choix
  Maximum: Minimum: Moyenne:
Température: TemperatureC °C 5.2 °C 7.7 °C
Point de rosée: DewpointC °C -7.1 °C -2.5 °C
Humidité: Humidity % 39 % 45 %
Vitesse du vent: 0 km/h 0 km/h 0 km/h
Rafales: 0 km/h - -
Vent:- - North
Pression: PressurehPa hPa 1018.5 hPa -
Précipitations: 0.0 mm    
Historical Graphs
 
 
Mesures pour : Janvier 19, 2017
Heure Temperature Point de rosée Pression Vent Vitesse du vent Rafales Humidité Pluie (par heure) Conditions
TemperatureC °C DewpointC °C PressurehPa hPa Calm     Humidity % HourlyPrecipMM mm SoftwareType W/m2
00:11 5.9 °C -7.1 °C 1018.5 hPa Calm   8.9 km/h 39 % 0.0 mm open2300-1.11 W/m2
01:10 5.5 °C -7.1 °C 1018.8 hPa Calm     40 % 0.0 mm open2300-1.11 W/m2
02:11 5.5 °C -6.2 °C 1019.2 hPa Calm     43 % 0.0 mm open2300-1.11 W/m2
03:11 5.4 °C -5.4 °C 1019.5 hPa Calm     46 % 0.0 mm open2300-1.11 W/m2
04:10 5.3 °C -4.9 °C 1019.5 hPa Calm     48 % 0.0 mm open2300-1.11 W/m2
05:11 5.2 °C -5.0 °C 1019.9 hPa Calm     48 % 0.0 mm open2300-1.11 W/m2
06:10 5.3 °C -4.3 °C 1020.2 hPa Calm     50 % 0.0 mm open2300-1.11 W/m2
07:11 5.6 °C -4.3 °C 1020.5 hPa Calm     49 % 0.0 mm open2300-1.11 W/m2
08:10 5.8 °C -4.1 °C 1020.9 hPa Calm     49 % 0.0 mm open2300-1.11 W/m2
09:11 6.4 °C -3.6 °C 1021.6 hPa Calm     49 % 0.0 mm open2300-1.11 W/m2
10:10 8.1 °C -2.6 °C 1022.2 hPa Calm     47 % 0.0 mm open2300-1.11 W/m2
11:11 9.6 °C -1.6 °C 1022.2 hPa Calm     46 % 0.0 mm open2300-1.11 W/m2
12:10 10.8 °C -0.4 °C 1022.2 hPa Calm     46 % 0.0 mm open2300-1.11 W/m2
13:11 11.1 °C -0.2 °C 1022.2 hPa Calm   14 km/h 46 % 0.0 mm open2300-1.11 W/m2
14:10 11.3 °C 0.0 °C 1021.9 hPa Calm     46 % 0.0 mm open2300-1.11 W/m2
15:11 11.4 °C -0.2 °C 1021.9 hPa Calm     45 % 0.0 mm open2300-1.11 W/m2
16:10 11.2 °C -0.1 °C 1021.6 hPa Calm   2.9 km/h 46 % 0.0 mm open2300-1.11 W/m2
17:11 10.1 °C -0.4 °C 1021.9 hPa Calm     48 % 0.0 mm open2300-1.11 W/m2
18:10 9.2 °C -0.4 °C 1022.2 hPa Calm     51 % 0.0 mm open2300-1.11 W/m2
19:11 9.0 °C -0.6 °C 1022.2 hPa Calm     51 % 0.0 mm open2300-1.11 W/m2
20:10 9.0 °C -0.6 °C 1022.9 hPa Calm     51 % 0.0 mm open2300-1.11 W/m2
21:11 9.3 °C -0.6 °C 1023.2 hPa Calm     50 % 0.0 mm open2300-1.11 W/m2
23:11 9.4 °C -0.5 °C 1023.2 hPa Calm   6.4 km/h 50 % 0.0 mm open2300-1.11 W/m2
Observations météo à CASSIS
WU-History script by Weather Underground - 1 mb